Time;durP1;ratioP1;P1;durP2;ratioP2;P2;SDS_P1;SDS_P2;PMS_P1;PMS_P2;Temp;Humidity;BMP_temperature;BMP_pressure;BME280_temperature;BME280_humidity;BME280_pressure;Samples;Min_cycle;Max_cycle;Signal;HPM_P1;HPM_P2
2022/04/22 00:00:08;;;;;;;9.77;4.57;;;;;;;12.94;57.03;100865.03;5095940;28;20055;-61
2022/04/22 00:02:38;;;;;;;9.27;4.50;;;;;;;12.93;57.04;100866.78;5095938;28;20055;-61
2022/04/22 00:05:09;;;;;;;10.65;4.90;;;;;;;12.94;56.95;100863.28;5095713;28;20143;-62
2022/04/22 00:07:37;;;;;;;8.35;4.78;;;;;;;12.92;56.89;100874.59;5095841;28;20072;-61
2022/04/22 00:10:09;;;;;;;9.38;4.50;;;;;;;12.91;56.79;100875.47;5095280;28;20633;-61
2022/04/22 00:12:38;;;;;;;8.90;4.32;;;;;;;12.88;56.89;100867.72;5095162;28;20048;-62
2022/04/22 00:15:08;;;;;;;13.07;5.07;;;;;;;12.88;56.80;100863.38;5095301;28;20728;-62
2022/04/22 00:17:36;;;;;;;10.85;5.20;;;;;;;12.88;56.79;100862.53;5095793;28;20130;-61
2022/04/22 00:20:12;;;;;;;10.80;4.63;;;;;;;12.87;56.71;100855.59;5095459;28;20465;-62
2022/04/22 00:22:41;;;;;;;10.90;4.72;;;;;;;12.86;56.79;100862.56;5079288;28;20048;-61
2022/04/22 00:25:10;;;;;;;10.85;5.35;;;;;;;12.85;56.64;100858.22;5090120;28;20059;-62
2022/04/22 00:27:39;;;;;;;11.82;5.43;;;;;;;12.84;56.83;100860.84;5094258;28;20059;-62
2022/04/22 00:30:10;;;;;;;13.70;6.03;;;;;;;12.84;56.96;100850.44;5095419;28;20056;-62
2022/04/22 00:32:39;;;;;;;10.27;5.50;;;;;;;12.83;56.86;100859.13;5085411;28;20065;-62
2022/04/22 00:35:07;;;;;;;12.77;6.18;;;;;;;12.82;57.01;100855.69;5079418;28;20070;-62
2022/04/22 00:37:35;;;;;;;13.48;6.05;;;;;;;12.83;57.09;100848.72;5094965;28;20045;-62
2022/04/22 00:40:02;;;;;;;12.23;5.88;;;;;;;12.82;57.16;100852.22;5095357;28;20062;-62
2022/04/22 00:42:30;;;;;;;11.70;5.70;;;;;;;12.81;57.14;100845.28;5092289;28;20093;-62
2022/04/22 00:44:57;;;;;;;10.95;5.10;;;;;;;12.80;57.30;100844.44;5100725;28;20074;-62
2022/04/22 00:47:40;;;;;;;11.55;5.82;;;;;;;12.80;57.02;100851.38;5115366;28;20177;-62
2022/04/22 00:50:08;;;;;;;15.20;6.18;;;;;;;12.77;57.14;100843.63;5115207;28;20519;-61
2022/04/22 00:52:36;;;;;;;13.48;5.85;;;;;;;12.76;57.52;100842.78;5074499;28;20144;-61
2022/04/22 00:55:04;;;;;;;11.38;5.18;;;;;;;12.74;57.48;100838.47;5074345;28;20457;-61
2022/04/22 00:57:35;;;;;;;10.75;5.50;;;;;;;12.70;57.75;100842.00;5074651;28;20060;-61
2022/04/22 01:00:04;;;;;;;18.63;6.47;;;;;;;12.69;57.87;100841.16;5094132;28;20509;-62
2022/04/22 01:02:33;;;;;;;16.20;6.00;;;;;;;12.70;57.95;100842.00;5094924;28;20047;-62
2022/04/22 01:10:32;;;;;;;14.25;5.72;;;;;;;12.64;58.07;100849.03;5094799;28;20098;-62
2022/04/22 01:12:59;;;;;;;9.75;5.35;;;;;;;12.64;58.10;100841.22;5084026;28;20063;-62
2022/04/22 01:15:28;;;;;;;14.32;5.63;;;;;;;12.64;58.27;100837.75;5088169;28;20052;-61
2022/04/22 01:17:57;;;;;;;15.80;6.20;;;;;;;12.64;58.18;100842.97;5073883;28;20060;-62
2022/04/22 01:20:24;;;;;;;11.55;5.53;;;;;;;12.61;58.34;100843.88;5073323;28;20056;-63
2022/04/22 01:22:56;;;;;;;9.73;4.97;;;;;;;12.60;58.36;100847.34;5072605;28;20056;-61
2022/04/22 01:25:24;;;;;;;8.20;4.60;;;;;;;12.60;58.46;100849.94;5088884;28;20054;-61
2022/04/22 01:27:52;;;;;;;11.32;5.10;;;;;;;12.57;58.78;100846.53;5091996;28;20048;-61
2022/04/22 01:30:24;;;;;;;11.18;5.25;;;;;;;12.56;58.66;100845.69;5093924;28;20040;-61
2022/04/22 01:32:55;;;;;;;9.32;4.80;;;;;;;12.55;58.64;100838.75;5094133;28;20048;-61
2022/04/22 01:35:24;;;;;;;7.60;3.97;;;;;;;12.55;58.66;100836.16;5094273;28;20063;-61
2022/04/22 01:37:55;;;;;;;8.32;4.55;;;;;;;12.55;58.58;100836.16;5094255;28;20130;-61
2022/04/22 01:40:26;;;;;;;7.75;4.57;;;;;;;12.54;58.65;100841.38;5082846;28;20084;-61
2022/04/22 01:42:57;;;;;;;8.15;4.28;;;;;;;12.51;58.53;100842.28;5073947;28;20059;-61
2022/04/22 01:45:24;;;;;;;11.32;4.90;;;;;;;12.51;58.44;100837.09;5097062;28;20051;-61
2022/04/22 01:47:52;;;;;;;9.45;4.47;;;;;;;12.50;58.39;100843.16;5114018;28;20392;-62
2022/04/22 01:50:20;;;;;;;11.88;4.93;;;;;;;12.50;58.23;100840.56;5112939;28;20349;-62
2022/04/22 01:52:47;;;;;;;10.60;4.07;;;;;;;12.50;58.14;100845.78;5080552;28;20066;-61
2022/04/22 01:55:16;;;;;;;6.55;4.03;;;;;;;12.50;58.08;100848.38;5093809;28;20052;-61
2022/04/22 01:57:44;;;;;;;9.95;4.15;;;;;;;12.48;57.84;100849.25;5094043;28;20055;-61
2022/04/22 02:00:12;;;;;;;9.25;3.63;;;;;;;12.49;57.79;100846.66;5093642;28;20048;-62
2022/04/22 02:02:40;;;;;;;6.85;3.63;;;;;;;12.48;57.72;100844.91;5089209;28;20056;-61
2022/04/22 02:05:09;;;;;;;8.20;4.28;;;;;;;12.50;57.64;100848.38;5093322;28;20400;-61
2022/04/22 02:07:38;;;;;;;6.40;3.80;;;;;;;12.51;57.48;100837.09;5093350;28;20349;-62
2022/04/22 02:10:09;;;;;;;8.55;3.50;;;;;;;12.52;57.40;100843.16;5089527;28;20063;-62
2022/04/22 02:12:38;;;;;;;6.93;3.20;;;;;;;12.49;57.38;100843.19;5072511;28;20134;-62
2022/04/22 02:15:07;;;;;;;7.07;4.03;;;;;;;12.49;57.46;100838.84;5072629;28;20063;-61
2022/04/22 02:17:34;;;;;;;6.78;3.25;;;;;;;12.49;57.37;100838.84;5073093;28;20057;-61
2022/04/22 02:20:02;;;;;;;7.85;3.83;;;;;;;12.50;57.35;100840.56;5073257;28;20056;-61
2022/04/22 02:22:34;;;;;;;10.43;4.07;;;;;;;12.52;57.36;100843.16;5086117;28;20059;-61
2022/04/22 02:25:02;;;;;;;6.65;3.88;;;;;;;12.51;57.22;100850.09;5085263;28;20052;-61
2022/04/22 02:30:18;;;;;;;5.00;2.67;;;;;;;12.48;57.35;100847.50;5072683;28;20062;-61
2022/04/22 02:32:46;;;;;;;6.90;3.63;;;;;;;12.45;57.24;100847.56;5072720;28;20063;-61
2022/04/22 02:35:14;;;;;;;7.97;3.33;;;;;;;12.43;57.28;100849.31;5077894;28;20040;-61
2022/04/22 02:37:42;;;;;;;5.68;3.15;;;;;;;12.40;57.37;100844.16;5072523;28;20076;-61
2022/04/22 02:40:10;;;;;;;8.48;3.30;;;;;;;12.40;57.50;100854.56;5072570;28;20053;-61
2022/04/22 02:45:27;;;;;;;6.55;3.05;;;;;;;12.41;57.38;100858.88;5095716;28;20372;-60
2022/04/22 02:47:56;;;;;;;6.93;3.00;;;;;;;12.39;57.68;100852.84;5112873;28;20521;-61
2022/04/22 02:50:24;;;;;;;7.03;3.30;;;;;;;12.36;57.91;100857.22;5096419;28;20056;-60
2022/04/22 02:52:51;;;;;;;6.05;3.03;;;;;;;12.35;58.02;100861.56;5085590;28;20076;-61
2022/04/22 02:55:19;;;;;;;6.53;3.60;;;;;;;12.35;57.88;100861.56;5076732;28;20138;-61
2022/04/22 02:57:47;;;;;;;7.60;3.53;;;;;;;12.32;58.05;100864.19;5076818;28;20041;-61
2022/04/22 03:00:17;;;;;;;6.57;3.20;;;;;;;12.28;58.11;100865.13;5076905;28;20059;-61
2022/04/22 03:02:59;;;;;;;7.85;3.63;;;;;;;12.23;58.46;100872.97;5077488;28;20123;-60
2022/04/22 03:05:29;;;;;;;6.63;3.55;;;;;;;12.18;58.52;100873.94;5096522;28;20059;-61
2022/04/22 03:07:57;;;;;;;5.88;3.42;;;;;;;12.10;58.77;100870.56;5096602;28;20139;-60
2022/04/22 03:10:24;;;;;;;7.55;3.55;;;;;;;12.05;58.80;100877.56;5096473;28;20094;-61
2022/04/22 03:12:53;;;;;;;5.45;3.60;;;;;;;12.03;59.11;100868.94;5096145;28;20064;-61
2022/04/22 03:15:24;;;;;;;5.32;3.55;;;;;;;11.97;59.05;100873.31;5096438;28;20044;-61
2022/04/22 03:17:52;;;;;;;5.45;2.80;;;;;;;11.85;59.28;100873.44;5097042;28;20087;-61
2022/04/22 03:20:20;;;;;;;6.38;3.00;;;;;;;11.77;59.67;100875.22;5096945;28;20055;-60
2022/04/22 03:22:48;;;;;;;6.35;3.17;;;;;;;11.71;59.99;100880.50;5096955;28;20047;-61
2022/04/22 03:25:19;;;;;;;5.75;2.92;;;;;;;11.64;60.37;100878.84;5096417;28;20376;-60
2022/04/22 03:27:46;;;;;;;8.85;3.33;;;;;;;11.59;60.54;100878.88;5097097;28;20142;-61
2022/04/22 03:30:14;;;;;;;4.18;2.60;;;;;;;11.56;60.68;100878.06;5096513;28;20055;-60
2022/04/22 03:32:42;;;;;;;4.90;2.40;;;;;;;11.56;60.94;100878.06;5096223;28;20056;-59
2022/04/22 03:35:12;;;;;;;6.50;2.65;;;;;;;11.56;60.81;100878.06;5096278;28;20522;-59
2022/04/22 03:37:41;;;;;;;7.03;3.60;;;;;;;11.52;61.32;100876.38;5096553;28;20109;-60
2022/04/22 03:40:10;;;;;;;5.13;2.80;;;;;;;11.46;60.99;100879.88;5096441;28;20063;-61
2022/04/22 03:42:41;;;;;;;6.15;2.58;;;;;;;11.42;61.76;100879.91;5093363;28;20090;-61
2022/04/22 03:45:09;;;;;;;4.97;2.95;;;;;;;11.39;61.33;100886.84;5095305;28;20054;-61
2022/04/22 03:47:39;;;;;;;6.18;2.78;;;;;;;11.42;61.60;100880.75;5116375;28;20587;-61
2022/04/22 03:50:08;;;;;;;4.68;2.90;;;;;;;11.45;61.40;100879.91;5116866;28;20054;-60
2022/04/22 03:52:37;;;;;;;4.93;3.08;;;;;;;11.39;61.78;100881.66;5096448;28;20047;-60
2022/04/22 03:55:06;;;;;;;5.97;2.72;;;;;;;11.36;61.79;100884.28;5096276;28;20098;-60
2022/04/22 04:00:21;;;;;;;5.55;2.70;;;;;;;11.30;62.17;100897.31;5075943;28;20042;-60
2022/04/22 04:02:49;;;;;;;5.80;3.47;;;;;;;11.31;62.19;100891.25;5077371;28;20078;-60
2022/04/22 04:05:17;;;;;;;4.93;3.03;;;;;;;11.36;62.30;100894.66;5096233;28;20051;-60
2022/04/22 04:07:46;;;;;;;6.35;3.35;;;;;;;11.37;62.36;100898.97;5096300;28;20052;-60
2022/04/22 04:16:00;;;;;;;8.07;2.90;;;;;;;11.48;62.01;100895.44;5095736;28;20366;-60
2022/04/22 04:18:30;;;;;;;8.10;3.05;;;;;;;11.49;62.29;100898.03;5095656;28;20131;-60
2022/04/22 04:23:45;;;;;;;4.93;2.63;;;;;;;11.64;61.63;100900.47;5095437;28;20043;-61
2022/04/22 04:26:15;;;;;;;4.93;2.80;;;;;;;11.77;61.31;100913.31;5095349;28;20056;-61
2022/04/22 04:28:44;;;;;;;5.53;2.92;;;;;;;11.88;61.21;100912.34;5088110;28;20056;-59
2022/04/22 04:31:12;;;;;;;5.80;2.67;;;;;;;12.05;60.85;100914.78;5075411;28;20127;-60
2022/04/22 04:33:40;;;;;;;5.32;2.60;;;;;;;12.19;60.43;100914.63;5075219;28;20053;-61
2022/04/22 04:36:09;;;;;;;5.32;2.92;;;;;;;12.33;59.84;100920.50;5087943;28;20102;-60
2022/04/22 04:38:39;;;;;;;5.22;2.95;;;;;;;12.52;59.52;100922.00;5095618;28;20098;-60
2022/04/22 04:41:13;;;;;;;6.53;2.20;;;;;;;12.68;58.93;100921.78;5095194;28;20486;-60
2022/04/22 04:43:40;;;;;;;3.83;2.10;;;;;;;12.83;58.42;100921.56;5095542;28;20084;-61
2022/04/22 04:46:08;;;;;;;4.10;2.13;;;;;;;12.97;57.48;100919.63;5095351;28;20048;-60
2022/04/22 04:48:37;;;;;;;3.28;1.73;;;;;;;13.09;56.93;100924.66;5095098;28;20052;-61
2022/04/22 04:51:06;;;;;;;2.95;1.98;;;;;;;13.18;56.65;100934.09;5102891;28;20051;-61
2022/04/22 04:53:34;;;;;;;3.03;1.70;;;;;;;13.29;56.18;100926.13;5115416;28;20066;-61
2022/04/22 04:56:02;;;;;;;4.13;1.80;;;;;;;13.38;55.83;100925.97;5115556;28;20048;-60
2022/04/22 04:58:34;;;;;;;3.35;2.03;;;;;;;13.53;55.40;100920.50;5108285;28;20047;-61
2022/04/22 05:01:02;;;;;;;2.63;1.70;;;;;;;13.66;54.70;100927.22;5095051;28;20105;-61
2022/04/22 05:03:29;;;;;;;3.30;1.50;;;;;;;13.79;54.21;100933.91;5094865;28;20055;-61
2022/04/22 05:05:58;;;;;;;5.85;1.45;;;;;;;13.87;54.17;100936.38;5089336;28;20041;-60
2022/04/22 05:08:26;;;;;;;2.70;1.70;;;;;;;13.94;53.92;100937.13;5080949;28;20143;-60
2022/04/22 05:10:54;;;;;;;3.22;1.50;;;;;;;14.03;53.49;100943.00;5074530;28;20056;-60
2022/04/22 05:13:21;;;;;;;3.45;1.50;;;;;;;14.11;53.20;100945.50;5078449;28;20471;-60
2022/04/22 05:15:55;;;;;;;2.50;1.38;;;;;;;14.17;52.20;100955.81;5094778;28;20127;-60
2022/04/22 05:18:26;;;;;;;2.05;1.50;;;;;;;14.22;52.29;100948.75;5074141;28;20052;-60
2022/04/22 05:20:54;;;;;;;1.90;1.30;;;;;;;14.27;52.54;100952.13;5074400;28;20106;-61
2022/04/22 05:23:22;;;;;;;2.00;1.33;;;;;;;14.36;51.95;100946.72;5073793;28;20437;-61
2022/04/22 05:25:50;;;;;;;2.72;1.40;;;;;;;14.50;51.79;100949.94;5088966;28;20465;-61
2022/04/22 05:28:17;;;;;;;3.22;1.23;;;;;;;14.65;51.65;100958.34;5094675;28;20056;-60
2022/04/22 05:33:31;;;;;;;3.45;1.80;;;;;;;14.93;50.72;100942.91;5094214;28;20194;-60
2022/04/22 05:35:59;;;;;;;2.75;1.50;;;;;;;15.09;50.64;100937.34;5094198;28;20123;-61
2022/04/22 05:38:26;;;;;;;4.25;1.70;;;;;;;15.25;49.55;100939.56;5093325;28;20062;-61
2022/04/22 05:40:57;;;;;;;4.53;1.77;;;;;;;15.33;49.75;100948.94;5094205;28;20079;-61
2022/04/22 05:43:28;;;;;;;2.63;1.80;;;;;;;15.35;49.30;100931.47;5084723;28;20060;-61
2022/04/22 05:45:56;;;;;;;2.60;1.70;;;;;;;15.41;49.31;100935.69;5106275;28;20074;-61
2022/04/22 05:48:23;;;;;;;5.18;1.77;;;;;;;15.47;48.79;100941.59;5114773;28;20430;-60
2022/04/22 05:50:52;;;;;;;5.30;1.60;;;;;;;15.54;48.57;100942.31;5108250;28;20437;-61
2022/04/22 05:53:20;;;;;;;2.53;1.42;;;;;;;15.67;48.69;100948.13;5094140;28;20047;-61
2022/04/22 05:55:48;;;;;;;3.58;1.55;;;;;;;15.71;48.25;100940.16;5092992;28;20044;-61
2022/04/22 05:58:16;;;;;;;3.25;1.67;;;;;;;15.73;48.13;100954.06;5073643;28;20127;-61
2022/04/22 06:00:44;;;;;;;2.83;1.90;;;;;;;15.68;48.14;100944.63;5073471;28;20559;-60
2022/04/22 06:03:12;;;;;;;2.60;1.80;;;;;;;15.69;48.36;100962.88;5078073;28;20470;-61
2022/04/22 06:05:39;;;;;;;2.33;1.45;;;;;;;15.73;48.33;100961.03;5093137;28;20054;-60
2022/04/22 06:10:57;;;;;;;2.15;1.38;;;;;;;15.96;48.25;100966.50;5093083;28;20109;-61
2022/04/22 06:13:25;;;;;;;5.85;1.85;;;;;;;16.10;47.79;100958.28;5092000;28;20098;-58
2022/04/22 06:15:53;;;;;;;2.50;1.60;;;;;;;16.18;47.47;100956.34;5085954;28;20471;-60
2022/04/22 06:18:23;;;;;;;1.90;1.38;;;;;;;16.17;47.32;100959.84;5087612;28;20472;-58
2022/04/22 06:20:51;;;;;;;2.50;1.40;;;;;;;16.19;47.06;100959.81;5092836;28;20496;-60
2022/04/22 06:23:20;;;;;;;4.15;1.73;;;;;;;16.20;47.06;100954.53;5099421;28;20050;-59
2022/04/22 06:25:48;;;;;;;4.13;1.83;;;;;;;16.23;46.84;100951.84;5092776;28;20380;-59
2022/04/22 06:28:16;;;;;;;3.47;1.70;;;;;;;16.26;47.11;100943.03;5094879;28;20115;-59
2022/04/22 06:30:46;;;;;;;2.95;1.50;;;;;;;16.37;47.15;100944.44;5108179;28;20045;-58
2022/04/22 06:33:16;;;;;;;3.08;1.55;;;;;;;16.48;46.63;100949.38;5098916;28;20139;-62
2022/04/22 06:35:44;;;;;;;2.78;1.60;;;;;;;16.56;46.55;100952.63;5102521;28;20059;-62
2022/04/22 06:38:17;;;;;;;6.15;2.10;;;;;;;16.52;46.53;100957.97;5107055;28;20051;-61
2022/04/22 06:46:19;;;;;;;;;;;;;;;16.18;46.77;100966.81;5108988;28;20051;-59
2022/04/22 06:48:46;;;;;;;3.10;1.70;;;;;;;16.18;47.28;100981.63;5096245;28;19942;-60
2022/04/22 06:51:19;;;;;;;4.20;2.10;;;;;;;16.04;47.34;100975.00;5109920;28;20080;-59
2022/04/22 06:53:52;;;;;;;2.20;1.80;;;;;;;15.96;47.59;100991.78;5102380;28;20132;-61
2022/04/22 06:56:34;;;;;;;6.57;2.05;;;;;;;15.67;48.05;100977.72;5094761;28;20059;-59
2022/04/22 06:59:03;;;;;;;4.65;1.85;;;;;;;15.42;48.95;100979.19;5080956;28;20047;-59
2022/04/22 07:01:31;;;;;;;3.17;1.90;;;;;;;15.33;49.17;100968.97;5104636;28;20067;-62
2022/04/22 07:04:00;;;;;;;5.68;2.13;;;;;;;15.08;49.90;100964.31;5081915;28;20052;-61
2022/04/22 07:06:28;;;;;;;3.33;1.70;;;;;;;14.86;50.63;100963.09;5093851;28;20052;-63
2022/04/22 07:08:57;;;;;;;2.47;1.60;;;;;;;14.77;50.31;100995.47;5109644;28;20051;-64
2022/04/22 07:11:29;;;;;;;4.47;1.67;;;;;;;14.66;50.66;100965.28;5099322;28;20078;-59
2022/04/22 07:13:59;;;;;;;3.33;1.67;;;;;;;14.59;50.75;100974.13;5100635;28;20060;-58
2022/04/22 07:16:27;;;;;;;3.47;1.98;;;;;;;14.53;51.57;100965.50;5092262;28;20056;-58
2022/04/22 07:18:57;;;;;;;4.50;2.08;;;;;;;14.46;51.63;100969.13;5095722;28;20047;-59
2022/04/22 07:21:25;;;;;;;2.88;1.85;;;;;;;14.37;52.35;100963.22;5102952;28;20496;-63
2022/04/22 07:23:55;;;;;;;6.10;2.13;;;;;;;14.29;52.64;100962.53;5093942;28;20119;-63
2022/04/22 07:26:25;;;;;;;4.32;2.15;;;;;;;14.23;53.07;100971.31;5106306;28;20138;-63
2022/04/22 07:29:00;;;;;;;4.50;1.42;;;;;;;14.21;52.85;100978.31;5110343;28;20058;-64
2022/04/22 07:31:31;;;;;;;3.58;1.58;;;;;;;14.22;52.37;100995.69;5087883;28;20084;-62
2022/04/22 07:34:01;;;;;;;4.57;2.22;;;;;;;14.19;52.38;101001.81;5093509;28;20117;-62
2022/04/22 07:36:32;;;;;;;2.85;1.40;;;;;;;14.23;52.17;100992.19;5084007;28;20083;-62
2022/04/22 07:39:00;;;;;;;2.42;1.13;;;;;;;14.30;51.78;100978.13;5083785;28;20073;-63
2022/04/22 07:41:29;;;;;;;2.25;1.42;;;;;;;14.48;50.61;100972.56;5108911;28;20048;-62
2022/04/22 07:46:58;;;;;;;2.25;1.27;;;;;;;14.55;50.14;100980.28;5103852;28;20063;-63
2022/04/22 07:49:26;;;;;;;3.15;0.98;;;;;;;14.63;50.04;100975.78;5107180;28;20109;-64
2022/04/22 07:51:53;;;;;;;2.38;1.45;;;;;;;14.79;49.89;100977.16;5111415;28;20375;-64
2022/04/22 07:54:20;;;;;;;2.30;1.20;;;;;;;14.89;49.61;100973.44;5106515;28;20097;-62
2022/04/22 07:56:47;;;;;;;1.63;1.20;;;;;;;14.94;49.73;100984.66;5105214;28;20052;-62
2022/04/22 07:59:17;;;;;;;6.43;1.85;;;;;;;15.00;49.63;100984.50;5088544;28;20052;-64
2022/04/22 08:01:45;;;;;;;3.17;1.20;;;;;;;15.09;49.14;100981.72;5100906;28;20058;-64
2022/04/22 08:04:11;;;;;;;2.33;1.38;;;;;;;15.26;48.47;100972.63;5077029;28;20071;-61
2022/04/22 08:06:39;;;;;;;2.25;1.20;;;;;;;15.46;48.05;100970.38;5109807;28;20070;-61
2022/04/22 08:09:15;;;;;;;2.00;1.23;;;;;;;15.61;47.18;100983.13;5100127;28;20398;-61
2022/04/22 08:11:43;;;;;;;1.75;1.20;;;;;;;15.69;46.87;100973.31;5103804;28;20044;-61
2022/04/22 08:14:12;;;;;;;3.40;1.10;;;;;;;15.89;46.64;100985.00;5107017;28;20055;-61
2022/04/22 08:16:41;;;;;;;1.90;1.30;;;;;;;16.09;45.64;100982.72;5108045;28;20043;-61
2022/04/22 08:19:09;;;;;;;2.63;1.50;;;;;;;16.21;45.70;100969.34;5100676;28;20043;-61
2022/04/22 08:21:36;;;;;;;2.35;1.30;;;;;;;16.40;45.25;100970.53;5106751;28;20063;-61
2022/04/22 08:24:06;;;;;;;2.00;1.20;;;;;;;16.46;44.79;100966.00;5096225;28;20049;-62
2022/04/22 08:26:35;;;;;;;1.98;1.42;;;;;;;16.52;44.73;100966.69;5108842;28;20135;-62
2022/04/22 08:29:04;;;;;;;3.45;1.58;;;;;;;16.52;44.84;100965.84;5099551;28;20050;-61
2022/04/22 08:31:31;;;;;;;4.07;1.83;;;;;;;16.52;44.61;100960.59;5110275;28;20121;-61
2022/04/22 08:34:00;;;;;;;2.80;1.77;;;;;;;16.49;44.86;100972.00;5103046;28;20051;-63
2022/04/22 08:36:30;;;;;;;4.07;2.00;;;;;;;16.52;44.88;100976.31;5094994;28;20372;-62
2022/04/22 08:38:58;;;;;;;2.20;1.88;;;;;;;16.54;44.94;100969.25;5098571;28;20050;-62
2022/04/22 08:41:27;;;;;;;4.38;1.90;;;;;;;16.69;44.87;100974.09;5108015;28;20052;-62
2022/04/22 08:43:56;;;;;;;4.07;1.70;;;;;;;16.82;44.66;100975.44;5103293;28;20079;-62
2022/04/22 08:52:01;;;;;;;3.05;1.95;;;;;;;17.10;43.66;100969.34;5092683;28;20062;-62
2022/04/22 08:54:29;;;;;;;2.53;1.77;;;;;;;17.19;43.40;100975.19;5106045;28;20051;-59
2022/04/22 08:56:59;;;;;;;4.18;1.70;;;;;;;17.29;43.19;100970.50;5111357;28;20055;-61
2022/04/22 08:59:27;;;;;;;2.70;1.75;;;;;;;17.40;42.66;100968.38;5098393;28;20063;-61
2022/04/22 09:01:56;;;;;;;2.90;1.67;;;;;;;17.54;42.14;100966.16;5114195;28;20044;-62
2022/04/22 09:04:26;;;;;;;4.68;2.05;;;;;;;17.65;41.51;100973.66;5099344;28;20054;-63
2022/04/22 09:06:54;;;;;;;1.67;1.13;;;;;;;17.73;41.42;100960.34;5111602;28;20044;-60
2022/04/22 09:09:23;;;;;;;4.93;1.92;;;;;;;17.84;41.22;100958.22;5101208;28;20711;-62
2022/04/22 09:11:51;;;;;;;4.10;1.50;;;;;;;17.96;40.64;100958.63;5103335;28;20082;-62
2022/04/22 09:14:23;;;;;;;1.95;1.40;;;;;;;18.06;39.94;100953.91;5083538;28;20458;-58
2022/04/22 09:16:52;;;;;;;6.72;2.47;;;;;;;18.10;39.73;100968.63;5112515;28;20052;-61
2022/04/22 09:19:19;;;;;;;2.45;1.50;;;;;;;18.05;39.79;100957.44;5107629;28;20048;-61
2022/04/22 09:21:57;;;;;;;4.35;1.52;;;;;;;18.10;38.12;100959.91;5104450;28;20051;-65
2022/04/22 09:24:25;;;;;;;26.20;3.33;;;;;;;18.13;39.12;100958.03;5098345;28;20468;-60
2022/04/22 09:27:04;;;;;;;3.50;2.10;;;;;;;18.22;38.34;100969.97;5096690;28;20455;-61
2022/04/22 09:29:41;;;;;;;3.30;2.13;;;;;;;18.20;39.37;100967.38;5106251;28;20481;-60
2022/04/22 09:32:12;;;;;;;3.90;1.70;;;;;;;18.17;39.59;100946.50;5107295;28;20051;-62
2022/04/22 09:34:42;;;;;;;3.67;1.90;;;;;;;18.05;39.82;100946.94;5095819;28;20063;-60
2022/04/22 09:42:55;;;;;;;3.45;1.98;;;;;;;18.14;38.53;100951.88;5084393;28;20137;-62
2022/04/22 09:45:35;;;;;;;3.75;2.28;;;;;;;18.11;36.63;100925.75;5109365;28;20043;-62
2022/04/22 09:48:12;;;;;;;4.50;2.78;;;;;;;18.01;37.75;100940.09;5099908;28;20657;-60
2022/04/22 09:50:42;;;;;;;3.17;2.08;;;;;;;17.98;38.10;100948.09;5106333;28;20051;-60
2022/04/22 09:53:13;;;;;;;2.67;1.80;;;;;;;17.97;37.87;100944.59;5108564;28;20071;-60
2022/04/22 09:55:53;;;;;;;4.25;2.10;;;;;;;17.97;36.57;100954.25;5102635;28;20166;-60
2022/04/22 09:58:28;;;;;;;2.78;1.98;;;;;;;17.97;35.59;100954.25;5093167;28;20051;-61
2022/04/22 10:01:03;;;;;;;5.85;3.00;;;;;;;17.94;35.66;100936.00;5096128;28;20048;-61
2022/04/22 10:03:33;;;;;;;6.78;2.40;;;;;;;18.03;37.21;100947.91;5105561;28;20051;-61
2022/04/22 10:06:03;;;;;;;2.80;2.10;;;;;;;18.04;38.01;100942.63;5105589;28;20047;-60
2022/04/22 10:08:36;;;;;;;3.10;2.47;;;;;;;18.10;38.54;100952.88;5097579;28;20052;-62
2022/04/22 10:11:05;;;;;;;3.78;2.60;;;;;;;18.19;38.22;100934.19;5094705;28;20059;-59
2022/04/22 10:13:40;;;;;;;3.60;2.67;;;;;;;18.24;39.50;100942.78;5097680;28;20406;-59
2022/04/22 10:16:12;;;;;;;6.75;2.78;;;;;;;18.22;40.22;100939.34;5098933;28;20040;-61
2022/04/22 10:18:41;;;;;;;3.00;2.13;;;;;;;18.34;40.20;100942.44;5095825;28;20417;-62
2022/04/22 10:21:11;;;;;;;3.20;2.40;;;;;;;18.26;39.79;100951.44;5096781;28;20044;-61
2022/04/22 10:23:40;;;;;;;4.78;1.95;;;;;;;18.17;39.70;100950.91;5090533;28;20044;-61
2022/04/22 10:26:08;;;;;;;5.05;2.58;;;;;;;18.19;39.27;100956.94;5088301;28;20055;-62
2022/04/22 10:28:36;;;;;;;5.88;3.10;;;;;;;18.07;37.82;100958.25;5094329;28;20067;-61
2022/04/22 10:31:07;;;;;;;4.20;3.20;;;;;;;17.97;37.48;100954.25;5102243;28;20139;-60
2022/04/22 10:33:43;;;;;;;5.43;2.70;;;;;;;17.79;38.91;100960.13;5094084;28;20144;-59
2022/04/22 10:36:12;;;;;;;;;;;;;;;17.64;40.84;100957.06;5095470;28;20051;-58
2022/04/22 10:38:44;;;;;;;5.15;3.20;;;;;;;17.61;40.95;100959.78;5099297;28;19924;-58
2022/04/22 10:41:17;;;;;;;4.07;3.08;;;;;;;17.48;41.35;100955.88;5092389;28;20083;-59
2022/04/22 10:47:13;;;;;;;4.75;3.03;;;;;;;17.26;42.13;100960.13;5104277;28;20111;-61
2022/04/22 10:49:20;;;;;;;10.50;3.00;;;;;;;17.33;40.75;100956.38;5099352;28;20070;-59
2022/04/22 10:52:09;;;;;;;5.28;2.80;;;;;;;17.41;41.36;100946.50;5110732;28;20547;-63
2022/04/22 10:55:12;;;;;;;4.22;3.00;;;;;;;17.45;41.36;100958.59;5093982;28;20044;-63
2022/04/22 10:57:42;;;;;;;8.27;3.15;;;;;;;17.52;41.37;100957.47;5085610;28;20055;-63
2022/04/22 11:00:28;;;;;;;5.20;3.10;;;;;;;17.42;41.94;100945.59;5090832;28;20369;-63
2022/04/22 11:03:13;;;;;;;6.13;3.33;;;;;;;17.44;41.75;100943.78;5098396;28;20048;-63
2022/04/22 11:05:50;;;;;;;4.35;2.97;;;;;;;17.48;41.78;100944.53;5081222;28;20052;-64
2022/04/22 11:08:24;;;;;;;9.35;3.30;;;;;;;17.61;41.21;100946.69;5101923;28;20392;-64
2022/04/22 11:11:13;;;;;;;4.47;3.15;;;;;;;17.68;41.15;100942.13;5104564;28;20051;-64
2022/04/22 11:13:43;;;;;;;7.65;2.85;;;;;;;17.80;40.73;100946.97;5102895;28;20059;-64
2022/04/22 11:16:16;;;;;;;4.30;3.05;;;;;;;17.93;40.23;100948.25;5115475;28;20055;-64
2022/04/22 11:18:45;;;;;;;10.15;3.60;;;;;;;17.92;40.53;100924.69;5109476;28;20044;-63
2022/04/22 11:21:16;;;;;;;6.20;3.20;;;;;;;17.94;39.80;100943.84;5107803;28;20042;-63
2022/04/22 11:23:45;;;;;;;4.28;2.78;;;;;;;17.87;39.89;100931.88;5103161;28;20055;-64
2022/04/22 11:26:18;;;;;;;6.93;3.40;;;;;;;17.94;39.64;100928.13;5119007;28;20079;-63
2022/04/22 11:28:46;;;;;;;5.60;2.70;;;;;;;18.00;39.37;100927.03;5102008;28;20045;-64
2022/04/22 11:31:15;;;;;;;6.65;3.00;;;;;;;18.06;38.99;100932.06;5106405;28;20381;-64
2022/04/22 11:33:55;;;;;;;5.75;3.33;;;;;;;18.15;38.31;100918.63;5101965;28;20052;-64
2022/04/22 11:36:24;;;;;;;3.92;2.90;;;;;;;18.15;38.29;100922.09;5110434;28;20048;-64
2022/04/22 11:38:53;;;;;;;3.95;2.90;;;;;;;18.22;38.04;100920.97;5108679;28;20056;-63
2022/04/22 11:41:23;;;;;;;7.40;3.83;;;;;;;18.28;37.77;100917.28;5095466;28;20051;-63
2022/04/22 11:43:50;;;;;;;5.13;2.95;;;;;;;18.23;37.50;100908.72;5094839;28;20064;-63
2022/04/22 11:46:19;;;;;;;5.07;3.60;;;;;;;18.18;37.69;100911.47;5105891;28;20384;-64
2022/04/22 11:48:53;;;;;;;5.22;3.28;;;;;;;18.16;37.65;100907.22;5090702;28;20404;-64
2022/04/22 11:51:22;;;;;;;7.35;3.60;;;;;;;18.07;37.82;100918.91;5098529;28;20040;-64
2022/04/22 11:53:51;;;;;;;5.63;3.33;;;;;;;18.00;38.02;100917.41;5115428;28;20083;-64
2022/04/22 11:56:22;;;;;;;5.03;3.10;;;;;;;18.00;38.22;100906.91;5104744;28;20061;-64
2022/04/22 11:58:57;;;;;;;5.63;3.22;;;;;;;17.78;37.16;100926.97;5103414;28;20067;-64
2022/04/22 12:08:00;;;;;;;5.10;4.32;;;;;;;17.14;38.99;100922.03;5072628;28;20082;-63
2022/04/22 12:13:00;;;;;;;5.32;3.40;;;;;;;17.21;37.80;100912.25;5081565;28;20055;-67
2022/04/22 12:15:30;;;;;;;5.20;3.25;;;;;;;17.15;38.73;100920.28;5094235;28;20066;-62
2022/04/22 12:17:57;;;;;;;6.47;3.72;;;;;;;16.98;38.77;100916.44;5108017;28;20079;-62
2022/04/22 12:20:26;;;;;;;5.18;3.08;;;;;;;16.98;38.91;100912.97;5099561;28;20464;-62
2022/04/22 12:22:55;;;;;;;4.80;3.78;;;;;;;17.00;39.25;100916.41;5092668;28;20055;-62
2022/04/22 12:25:23;;;;;;;6.95;3.22;;;;;;;17.04;38.87;100910.16;5093402;28;20059;-61
2022/04/22 12:28:13;;;;;;;8.23;3.53;;;;;;;17.03;38.55;100922.41;5090134;28;20056;-63
2022/04/22 12:30:44;;;;;;;4.70;3.42;;;;;;;17.02;38.77;100914.59;5095378;28;20048;-64
2022/04/22 12:33:18;;;;;;;4.82;3.60;;;;;;;17.07;38.65;100917.91;5099654;28;20498;-62
2022/04/22 12:35:49;;;;;;;5.20;4.07;;;;;;;17.11;39.03;100918.69;5086880;28;20049;-62